createdAt,value
2017-07-14T00:01:31.016Z,6.72
2017-07-14T00:03:58.573Z,5.43
2017-07-14T00:06:26.272Z,5.85
2017-07-14T00:17:33.171Z,4.18
2017-07-14T00:20:00.725Z,4.28
2017-07-14T00:22:28.295Z,5.57
2017-07-14T00:24:56.093Z,4.93
2017-07-14T00:27:23.645Z,5.47
2017-07-14T00:29:51.341Z,4.45
2017-07-14T00:32:19.038Z,6.75
2017-07-14T00:34:46.584Z,5.15
2017-07-14T00:37:14.144Z,4.57
2017-07-14T00:39:41.967Z,4.75
2017-07-14T00:42:09.541Z,4.57
2017-07-14T00:44:37.104Z,4.72
2017-07-14T00:47:04.723Z,4.80
2017-07-14T00:49:32.280Z,9.32
2017-07-14T00:51:59.851Z,6.12
2017-07-14T00:54:27.533Z,7.32
2017-07-14T00:56:55.085Z,5.28
2017-07-14T00:59:22.648Z,6.97
2017-07-14T01:01:50.244Z,6.95
2017-07-14T01:04:17.918Z,4.80
2017-07-14T01:06:45.473Z,4.55
2017-07-14T01:09:13.165Z,5.78
2017-07-14T01:11:41.483Z,4.37
2017-07-14T01:14:09.122Z,5.25
2017-07-14T01:16:37.045Z,5.50
2017-07-14T01:19:04.614Z,4.60
2017-07-14T01:21:32.950Z,5.30
2017-07-14T01:24:00.716Z,5.22
2017-07-14T01:26:28.272Z,5.03
2017-07-14T01:28:55.833Z,6.60
2017-07-14T01:31:23.428Z,5.07
2017-07-14T01:33:50.992Z,4.80
2017-07-14T01:36:18.552Z,11.45
2017-07-14T01:38:47.019Z,6.62
2017-07-14T01:41:14.603Z,5.40
2017-07-14T01:43:42.926Z,5.05
2017-07-14T01:46:10.699Z,4.95
2017-07-14T01:48:38.268Z,4.97
2017-07-14T01:51:05.839Z,4.70
2017-07-14T01:53:33.436Z,5.97
2017-07-14T01:56:01.014Z,5.20
2017-07-14T01:58:28.608Z,7.30
2017-07-14T02:00:56.327Z,5.37
2017-07-14T02:03:23.932Z,7.43
2017-07-14T02:05:51.489Z,4.93
2017-07-14T02:08:19.356Z,5.57
2017-07-14T02:10:46.942Z,4.95
2017-07-14T02:13:14.511Z,5.32
2017-07-14T02:15:42.259Z,5.57
2017-07-14T02:18:09.868Z,5.45
2017-07-14T02:20:37.487Z,11.20
2017-07-14T02:23:05.953Z,6.18
2017-07-14T02:25:33.528Z,6.57
2017-07-14T02:28:01.887Z,5.78
2017-07-14T02:30:29.682Z,6.60
2017-07-14T02:32:57.298Z,5.70
2017-07-14T02:35:24.856Z,4.87
2017-07-14T02:37:52.559Z,8.88
2017-07-14T02:40:20.872Z,6.70
2017-07-14T02:42:48.452Z,6.68
2017-07-14T02:45:16.182Z,5.40
2017-07-14T02:47:43.746Z,5.30
2017-07-14T02:50:11.317Z,6.37
2017-07-14T02:52:38.944Z,5.50
2017-07-14T02:55:06.524Z,6.22
2017-07-14T02:57:34.081Z,5.12
2017-07-14T03:00:01.804Z,6.87
2017-07-14T03:02:29.362Z,8.23
2017-07-14T03:04:56.929Z,10.45
2017-07-14T03:07:25.424Z,6.30
2017-07-14T03:09:52.999Z,6.32
2017-07-14T03:12:20.564Z,5.68
2017-07-14T03:14:48.432Z,6.30
2017-07-14T03:17:16.025Z,7.25
2017-07-14T03:19:43.579Z,7.53
2017-07-14T03:22:11.569Z,7.57
2017-07-14T03:24:39.176Z,6.05
2017-07-14T03:27:06.759Z,5.68
2017-07-14T03:29:34.533Z,7.07
2017-07-14T03:32:02.091Z,6.55
2017-07-14T03:34:34.501Z,7.05
2017-07-14T03:37:02.130Z,5.75
2017-07-14T03:39:29.704Z,7.62
2017-07-14T03:41:57.404Z,5.97
2017-07-14T03:44:24.969Z,6.05
2017-07-14T03:46:52.534Z,6.45
2017-07-14T03:49:20.290Z,7.30
2017-07-14T03:51:47.873Z,6.45
2017-07-14T03:54:15.445Z,6.40
2017-07-14T03:56:43.200Z,6.55
2017-07-14T03:59:10.770Z,5.60
2017-07-14T04:01:38.372Z,6.90
2017-07-14T04:04:06.753Z,6.62
2017-07-14T04:06:35.071Z,6.07
2017-07-14T04:09:02.642Z,5.30
2017-07-14T04:11:30.680Z,6.68
2017-07-14T04:13:58.233Z,5.57
2017-07-14T04:16:25.812Z,6.07
2017-07-14T04:18:53.441Z,7.47
2017-07-14T04:21:20.993Z,7.43
2017-07-14T04:23:48.556Z,10.20
2017-07-14T04:26:16.139Z,6.30
2017-07-14T04:28:43.712Z,8.52
2017-07-14T04:31:11.284Z,6.68
2017-07-14T04:33:39.046Z,7.00
2017-07-14T04:36:06.624Z,9.73
2017-07-14T04:38:34.202Z,6.90
2017-07-14T04:41:02.584Z,5.85
2017-07-14T04:43:30.139Z,7.25
2017-07-14T04:45:58.506Z,6.87
2017-07-14T04:48:26.298Z,7.57
2017-07-14T04:50:53.870Z,6.97
2017-07-14T04:53:21.459Z,8.05
2017-07-14T04:55:49.162Z,7.18
2017-07-14T04:58:16.720Z,6.47
2017-07-14T05:00:44.277Z,7.75
2017-07-14T05:03:12.065Z,11.25
2017-07-14T05:05:39.641Z,8.30
2017-07-14T05:08:07.200Z,7.30
2017-07-14T05:10:34.797Z,7.28
2017-07-14T05:13:02.348Z,7.22
2017-07-14T05:15:29.897Z,6.80
2017-07-14T05:17:57.653Z,7.57
2017-07-14T05:20:25.225Z,7.07
2017-07-14T05:22:52.796Z,7.62
2017-07-14T05:25:20.595Z,7.60
2017-07-14T05:27:48.925Z,7.05
2017-07-14T05:30:16.481Z,7.75
2017-07-14T05:32:44.294Z,8.15
2017-07-14T05:35:12.628Z,9.02
2017-07-14T05:37:40.185Z,9.45
2017-07-14T05:40:07.982Z,7.60
2017-07-14T05:42:35.536Z,9.18
2017-07-14T05:45:03.109Z,8.45
2017-07-14T05:47:31.509Z,6.62
2017-07-14T05:49:59.837Z,7.50
2017-07-14T05:52:27.462Z,6.80
2017-07-14T05:54:55.086Z,7.93
2017-07-14T05:57:22.649Z,6.37
2017-07-14T05:59:50.988Z,10.32
2017-07-14T06:02:18.600Z,6.80
2017-07-14T06:04:46.921Z,6.05
2017-07-14T06:07:14.485Z,5.37
2017-07-14T06:09:42.251Z,6.50
2017-07-14T06:12:09.867Z,6.50
2017-07-14T06:14:37.442Z,5.43
2017-07-14T06:17:05.134Z,4.15
2017-07-14T06:19:32.702Z,3.20
2017-07-14T06:22:00.266Z,3.70
2017-07-14T06:24:27.960Z,3.80
2017-07-14T06:26:55.525Z,3.50
2017-07-14T06:29:23.859Z,3.50
2017-07-14T06:31:51.618Z,4.07
2017-07-14T06:34:19.172Z,4.65
2017-07-14T06:36:46.753Z,6.65
2017-07-14T06:39:14.497Z,3.60
2017-07-14T06:41:42.056Z,3.20
2017-07-14T06:44:09.606Z,3.95
2017-07-14T06:46:37.519Z,3.70
2017-07-14T06:49:05.108Z,2.62
2017-07-14T06:51:32.696Z,5.15
2017-07-14T06:54:00.348Z,3.80
2017-07-14T06:56:27.928Z,5.78
2017-07-14T06:58:55.505Z,3.72
2017-07-14T07:01:23.126Z,4.68
2017-07-14T07:03:50.685Z,5.30
2017-07-14T07:06:18.275Z,6.87
2017-07-14T07:08:46.053Z,2.37
2017-07-14T07:11:13.615Z,3.40
2017-07-14T07:13:41.173Z,4.07
2017-07-14T07:16:08.799Z,4.90
2017-07-14T07:18:36.400Z,2.78
2017-07-14T07:21:03.966Z,4.50
2017-07-14T07:23:32.447Z,3.35
2017-07-14T07:26:00.785Z,4.03
2017-07-14T07:28:28.349Z,5.12
2017-07-14T07:30:56.081Z,5.47
2017-07-14T07:33:23.641Z,10.20
2017-07-14T07:35:51.203Z,5.40
2017-07-14T07:38:18.930Z,2.72
2017-07-14T07:40:47.255Z,4.80
2017-07-14T07:43:14.812Z,3.62
2017-07-14T07:45:42.423Z,4.57
2017-07-14T07:48:16.500Z,7.20
2017-07-14T07:50:44.112Z,8.13
2017-07-14T07:53:11.681Z,4.15
2017-07-14T07:55:39.249Z,5.82
2017-07-14T07:58:06.844Z,6.68
2017-07-14T08:00:34.416Z,3.45
2017-07-14T08:03:08.098Z,5.07
2017-07-14T08:05:35.656Z,4.68
2017-07-14T08:08:03.224Z,5.50
2017-07-14T08:10:30.828Z,4.80
2017-07-14T08:12:58.393Z,3.33
2017-07-14T08:15:25.950Z,4.05
2017-07-14T08:17:53.647Z,5.15
2017-07-14T08:20:21.215Z,5.60
2017-07-14T08:22:48.774Z,5.07
2017-07-14T08:25:16.466Z,4.85
2017-07-14T08:27:44.039Z,4.90
2017-07-14T08:30:12.360Z,4.95
2017-07-14T08:32:40.054Z,5.55
2017-07-14T08:35:07.625Z,4.90
2017-07-14T08:37:35.957Z,4.47
2017-07-14T08:40:03.739Z,5.03
2017-07-14T08:42:31.296Z,4.80
2017-07-14T08:44:58.853Z,7.20
2017-07-14T08:47:26.597Z,4.65
2017-07-14T08:49:54.173Z,3.00
2017-07-14T08:52:21.739Z,6.40
2017-07-14T08:54:49.378Z,5.05
2017-07-14T08:57:16.937Z,6.62
2017-07-14T08:59:44.509Z,3.95
2017-07-14T09:02:12.124Z,5.18
2017-07-14T09:04:39.701Z,4.30
2017-07-14T09:07:07.260Z,4.03
2017-07-14T09:09:34.870Z,4.82
2017-07-14T09:12:02.428Z,2.90
2017-07-14T09:14:29.985Z,2.80
2017-07-14T09:16:57.690Z,6.62
2017-07-14T09:19:25.300Z,3.35
2017-07-14T09:21:52.873Z,3.12
2017-07-14T09:24:20.594Z,3.92
2017-07-14T09:26:48.180Z,2.97
2017-07-14T09:29:15.737Z,2.85
2017-07-14T09:31:43.459Z,5.75
2017-07-14T09:34:11.021Z,4.20
2017-07-14T09:36:38.618Z,5.03
2017-07-14T09:39:06.357Z,6.87
2017-07-14T09:41:33.920Z,4.55
2017-07-14T09:44:01.494Z,3.60
2017-07-14T09:46:29.339Z,9.57
2017-07-14T09:48:56.972Z,2.70
2017-07-14T09:51:24.577Z,4.60
2017-07-14T09:53:52.313Z,4.50
2017-07-14T09:56:19.884Z,4.30
2017-07-14T09:58:47.457Z,3.25
2017-07-14T10:01:15.056Z,4.15
2017-07-14T10:03:42.638Z,4.90
2017-07-14T10:06:10.218Z,5.60
2017-07-14T10:08:37.929Z,4.20
2017-07-14T10:11:05.491Z,2.80
2017-07-14T10:13:33.067Z,5.60
2017-07-14T10:16:00.887Z,3.75
2017-07-14T10:18:28.530Z,4.37
2017-07-14T10:20:56.157Z,2.10
2017-07-14T10:23:23.920Z,3.80
2017-07-14T10:25:51.515Z,4.37
2017-07-14T10:28:19.093Z,3.03
2017-07-14T10:30:46.889Z,2.70
2017-07-14T10:33:14.457Z,3.63
2017-07-14T10:35:42.039Z,3.37
2017-07-14T10:38:09.805Z,2.67
2017-07-14T10:40:37.374Z,4.97
2017-07-14T10:43:04.978Z,4.17
2017-07-14T10:45:32.747Z,3.33
2017-07-14T10:48:00.311Z,2.60
2017-07-14T10:50:27.865Z,2.73
2017-07-14T10:52:55.647Z,3.90
2017-07-14T10:55:23.213Z,2.00
2017-07-14T10:57:51.545Z,4.37
2017-07-14T11:00:19.720Z,3.63
2017-07-14T11:02:47.357Z,4.43
2017-07-14T11:05:15.215Z,4.57
2017-07-14T11:07:42.994Z,2.97
2017-07-14T11:10:10.565Z,2.83
2017-07-14T11:12:38.156Z,2.67
2017-07-14T11:15:05.957Z,1.90
2017-07-14T11:17:33.561Z,2.30
2017-07-14T11:20:01.117Z,2.93
2017-07-14T11:22:28.758Z,3.80
2017-07-14T11:24:56.342Z,2.10
2017-07-14T11:27:23.927Z,3.43
2017-07-14T11:29:51.526Z,2.13
2017-07-14T11:32:19.148Z,3.90
2017-07-14T11:34:46.745Z,4.60
2017-07-14T11:37:14.821Z,2.47
2017-07-14T11:39:42.414Z,2.20
2017-07-14T11:42:09.984Z,3.43
2017-07-14T11:44:37.688Z,3.67
2017-07-14T11:47:05.266Z,3.83
2017-07-14T11:49:32.875Z,2.30
2017-07-14T11:52:00.496Z,1.60
2017-07-14T11:54:28.074Z,3.13
2017-07-14T11:56:55.642Z,2.30
2017-07-14T11:59:23.525Z,2.60
2017-07-14T12:01:51.854Z,2.33
2017-07-14T12:04:19.414Z,3.70
2017-07-14T12:06:47.120Z,6.10
2017-07-14T12:09:14.720Z,2.63
2017-07-14T12:11:42.399Z,2.30
2017-07-14T12:14:10.016Z,4.77
2017-07-14T12:16:37.582Z,4.17
2017-07-14T12:19:05.936Z,3.57
2017-07-14T12:21:33.660Z,1.80
2017-07-14T12:24:01.451Z,2.20
2017-07-14T12:26:29.044Z,2.77
2017-07-14T12:28:57.768Z,1.43
2017-07-14T12:31:25.502Z,2.50
2017-07-14T12:33:53.835Z,2.17
2017-07-14T12:36:21.463Z,2.53
2017-07-14T12:38:49.035Z,2.30
2017-07-14T12:41:16.720Z,2.47
2017-07-14T12:43:44.732Z,4.47
2017-07-14T12:46:12.353Z,2.40
2017-07-14T12:48:40.713Z,6.30
2017-07-14T12:51:08.433Z,3.30
2017-07-14T12:53:36.001Z,2.33
2017-07-14T12:56:03.583Z,2.77
2017-07-14T12:58:31.307Z,2.30
2017-07-14T13:00:59.668Z,3.23
2017-07-14T13:03:27.231Z,4.33
2017-07-14T13:05:55.755Z,2.30
2017-07-14T13:08:23.328Z,2.50
2017-07-14T13:10:50.879Z,2.63
2017-07-14T13:13:18.487Z,3.57
2017-07-14T13:15:46.049Z,2.10
2017-07-14T13:18:13.609Z,2.30
2017-07-14T13:20:41.384Z,3.40
2017-07-14T13:23:09.759Z,2.03
2017-07-14T13:25:38.080Z,2.30
2017-07-14T13:28:05.836Z,2.03
2017-07-14T13:30:33.408Z,2.60
2017-07-14T13:33:00.985Z,4.00
2017-07-14T13:35:28.609Z,2.07
2017-07-14T13:37:56.197Z,1.80
2017-07-14T13:40:23.801Z,2.23
2017-07-14T13:42:52.277Z,4.30
2017-07-14T13:45:20.609Z,3.03
2017-07-14T13:47:48.159Z,4.70
2017-07-14T13:50:15.786Z,5.90
2017-07-14T13:52:44.158Z,1.60
2017-07-14T13:55:11.729Z,3.37
2017-07-14T13:57:39.453Z,2.10
2017-07-14T14:00:07.015Z,2.57
2017-07-14T14:02:34.603Z,2.47
2017-07-14T14:05:02.246Z,3.53
2017-07-14T14:07:29.800Z,2.10
2017-07-14T14:09:57.378Z,4.47
2017-07-14T14:12:25.866Z,1.97
2017-07-14T14:14:54.211Z,4.13
2017-07-14T14:17:21.785Z,3.07
2017-07-14T14:19:49.488Z,6.73
2017-07-14T14:22:17.053Z,3.23
2017-07-14T14:24:44.618Z,2.53
2017-07-14T14:27:12.232Z,3.70
2017-07-14T14:29:40.565Z,2.50
2017-07-14T14:32:08.195Z,3.10
2017-07-14T14:34:35.958Z,2.00
2017-07-14T14:37:03.518Z,2.23
2017-07-14T14:39:31.111Z,4.70
2017-07-14T14:41:58.717Z,4.60
2017-07-14T14:44:26.272Z,1.80
2017-07-14T14:46:53.849Z,1.77
2017-07-14T14:49:21.461Z,2.07
2017-07-14T14:51:49.052Z,2.17
2017-07-14T14:54:17.404Z,2.73
2017-07-14T14:56:44.996Z,4.43
2017-07-14T14:59:13.324Z,1.60
2017-07-14T15:01:40.884Z,1.60
2017-07-14T15:04:08.704Z,1.60
2017-07-14T15:06:36.289Z,4.07
2017-07-14T15:09:03.908Z,1.97
2017-07-14T15:11:31.537Z,1.67
2017-07-14T15:13:59.131Z,2.53
2017-07-14T15:16:26.701Z,1.63
2017-07-14T15:18:54.469Z,2.33
2017-07-14T15:21:22.831Z,2.80
2017-07-14T15:23:50.404Z,2.50
2017-07-14T15:26:18.762Z,3.10
2017-07-14T15:28:46.318Z,4.57
2017-07-14T15:31:13.908Z,1.83
2017-07-14T15:33:41.529Z,6.93
2017-07-14T15:36:09.088Z,4.13
2017-07-14T15:38:36.710Z,4.33
2017-07-14T15:41:04.426Z,2.83
2017-07-14T15:43:31.995Z,2.73
2017-07-14T15:45:59.563Z,3.20
2017-07-14T15:48:28.211Z,2.23
2017-07-14T15:50:55.777Z,4.20
2017-07-14T15:53:23.332Z,6.63
2017-07-14T15:55:51.165Z,3.20
2017-07-14T15:58:18.745Z,3.50
2017-07-14T16:00:46.314Z,5.23
2017-07-14T16:03:13.898Z,4.30
2017-07-14T16:05:42.224Z,3.97
2017-07-14T16:08:09.793Z,6.00
2017-07-14T16:10:37.517Z,2.63
2017-07-14T16:13:05.092Z,3.17
2017-07-14T16:15:32.705Z,2.13
2017-07-14T16:18:00.437Z,3.20
2017-07-14T16:20:28.002Z,4.30
2017-07-14T16:22:55.576Z,2.43
2017-07-14T16:25:23.197Z,4.87
2017-07-14T16:27:50.789Z,7.23
2017-07-14T16:30:18.365Z,3.57
2017-07-14T16:32:45.963Z,3.47
2017-07-14T16:35:13.533Z,2.70
2017-07-14T16:37:41.099Z,8.50
2017-07-14T16:40:08.717Z,4.30
2017-07-14T16:42:36.299Z,2.50
2017-07-14T16:45:03.931Z,3.73
2017-07-14T16:47:32.499Z,2.80
2017-07-14T16:50:00.090Z,2.90
2017-07-14T16:52:28.499Z,3.63
2017-07-14T16:54:56.319Z,3.63
2017-07-14T16:57:23.897Z,3.87
2017-07-14T16:59:51.481Z,2.73
2017-07-14T17:02:19.099Z,2.80
2017-07-14T17:04:46.798Z,3.67
2017-07-14T17:07:14.389Z,6.60
2017-07-14T17:09:42.205Z,3.17
2017-07-14T17:12:10.531Z,4.47
2017-07-14T17:14:38.117Z,4.30
2017-07-14T17:17:05.837Z,7.70
2017-07-14T17:19:33.421Z,2.83
2017-07-14T17:22:01.055Z,9.40
2017-07-14T17:24:28.963Z,7.80
2017-07-14T17:26:56.558Z,7.90
2017-07-14T17:29:24.227Z,7.43
2017-07-14T17:31:51.977Z,9.37
2017-07-14T17:34:19.586Z,11.75
2017-07-14T17:36:47.164Z,8.03
2017-07-14T17:39:14.805Z,9.95
2017-07-14T17:41:42.382Z,11.57
2017-07-14T17:44:10.034Z,12.35
2017-07-14T17:46:37.876Z,14.25
2017-07-14T17:49:05.464Z,18.23
2017-07-14T17:51:33.124Z,16.45
2017-07-14T17:54:00.839Z,20.98
2017-07-14T17:56:28.409Z,21.25
2017-07-14T17:58:56.057Z,21.60
2017-07-14T18:01:43.248Z,21.00
2017-07-14T18:04:10.804Z,23.08
2017-07-14T18:06:38.390Z,21.45
2017-07-14T18:09:10.144Z,22.05
2017-07-14T18:11:37.731Z,22.33
2017-07-14T18:14:05.353Z,21.62
2017-07-14T18:16:33.120Z,22.87
2017-07-14T18:19:00.709Z,25.42
2017-07-14T18:21:28.304Z,21.55
2017-07-14T18:23:56.081Z,25.48
2017-07-14T18:26:23.671Z,25.75
2017-07-14T18:28:52.004Z,26.70
2017-07-14T18:31:19.715Z,24.42
2017-07-14T18:33:47.323Z,23.90
2017-07-14T18:36:14.938Z,23.95
2017-07-14T18:38:42.766Z,25.05
2017-07-14T18:41:10.361Z,24.55
2017-07-14T18:43:37.927Z,26.15
2017-07-14T18:46:12.752Z,25.10
2017-07-14T18:48:40.503Z,27.30
2017-07-14T18:51:08.879Z,25.17
2017-07-14T18:53:36.538Z,24.30
2017-07-14T18:56:05.169Z,22.45
2017-07-14T18:58:39.243Z,27.08
2017-07-14T19:01:09.022Z,25.05
2017-07-14T19:03:38.169Z,24.95
2017-07-14T19:06:05.777Z,24.27
2017-07-14T19:08:33.362Z,23.27
2017-07-14T19:11:02.596Z,25.75
2017-07-14T19:13:30.189Z,24.73
2017-07-14T19:16:07.414Z,25.37
2017-07-14T19:18:35.020Z,23.23
2017-07-14T19:21:02.627Z,24.50
2017-07-14T19:23:31.012Z,25.40
2017-07-14T19:25:59.514Z,23.92
2017-07-14T19:28:27.151Z,25.90
2017-07-14T19:30:54.920Z,25.42
2017-07-14T19:33:23.459Z,25.08
2017-07-14T19:35:51.478Z,24.30
2017-07-14T19:38:19.895Z,24.12
2017-07-14T19:40:47.473Z,24.33
2017-07-14T19:43:15.400Z,24.15
2017-07-14T19:45:44.121Z,23.15
2017-07-14T19:48:11.736Z,25.08
2017-07-14T19:50:39.421Z,24.05
2017-07-14T19:53:08.259Z,23.73
2017-07-14T19:55:42.597Z,24.80
2017-07-14T19:58:10.352Z,25.37
2017-07-14T20:00:38.133Z,24.73
2017-07-14T20:03:06.163Z,25.58
2017-07-14T20:05:34.046Z,26.23
2017-07-14T20:08:02.454Z,27.33
2017-07-14T20:10:31.049Z,25.08
2017-07-14T20:13:00.000Z,25.50
2017-07-14T20:15:28.452Z,25.08
2017-07-14T20:17:56.392Z,27.33
2017-07-14T20:20:24.693Z,28.50
2017-07-14T20:22:53.239Z,26.52
2017-07-14T20:25:22.558Z,26.75
2017-07-14T20:27:50.481Z,24.85
2017-07-14T20:30:19.423Z,23.98
2017-07-14T20:32:48.047Z,27.10
2017-07-14T20:35:17.070Z,25.83
2017-07-14T20:37:44.649Z,26.77
2017-07-14T20:40:14.370Z,26.60
2017-07-14T20:42:42.150Z,29.12
2017-07-14T20:45:11.202Z,28.42
2017-07-14T20:47:38.790Z,29.65
2017-07-14T20:50:06.757Z,30.45
2017-07-14T20:52:34.336Z,30.17
2017-07-14T20:55:01.895Z,29.35
2017-07-14T20:57:29.542Z,29.52
2017-07-14T20:59:57.148Z,29.42
2017-07-14T21:02:26.394Z,30.05
2017-07-14T21:04:54.096Z,29.42
2017-07-14T21:07:23.651Z,31.23
2017-07-14T21:09:51.234Z,31.15
2017-07-14T21:12:18.994Z,34.15
2017-07-14T21:14:47.318Z,33.13
2017-07-14T21:17:16.802Z,31.45
2017-07-14T21:19:44.835Z,32.17
2017-07-14T21:22:13.665Z,32.78
2017-07-14T21:24:41.361Z,33.63
2017-07-14T21:27:10.501Z,33.53
2017-07-14T21:29:39.525Z,31.48
2017-07-14T21:32:07.102Z,32.85
2017-07-14T21:34:34.901Z,33.95
2017-07-14T21:37:03.129Z,33.70
2017-07-14T21:39:31.475Z,34.75
2017-07-14T21:41:59.212Z,33.05
2017-07-14T21:44:26.837Z,36.42
2017-07-14T21:46:55.419Z,35.03
2017-07-14T21:49:23.241Z,37.80
2017-07-14T21:51:50.840Z,37.95
2017-07-14T21:54:19.747Z,38.42
2017-07-14T21:56:48.112Z,38.63
2017-07-14T21:59:16.063Z,37.63
2017-07-14T22:01:43.645Z,41.40
2017-07-14T22:04:12.410Z,42.45
2017-07-14T22:06:40.145Z,39.72
2017-07-14T22:09:07.709Z,46.58
2017-07-14T22:11:36.572Z,42.00
2017-07-14T22:14:04.144Z,43.03
2017-07-14T22:16:31.707Z,43.67
2017-07-14T22:18:59.407Z,45.05
2017-07-14T22:21:26.976Z,46.05
2017-07-14T22:23:55.608Z,47.33
2017-07-14T22:26:23.511Z,48.03
2017-07-14T22:28:51.239Z,50.30
2017-07-14T22:31:19.734Z,49.78
2017-07-14T22:33:47.887Z,51.25
2017-07-14T22:36:15.587Z,49.20
2017-07-14T22:38:43.263Z,50.97
2017-07-14T22:41:10.980Z,54.92
2017-07-14T22:43:38.643Z,43.85
2017-07-14T22:46:06.295Z,45.40
2017-07-14T22:48:33.995Z,43.38
2017-07-14T22:51:01.657Z,42.85
2017-07-14T22:53:29.346Z,41.42
2017-07-14T22:55:57.365Z,40.70
2017-07-14T22:58:25.013Z,40.33
2017-07-14T23:00:52.667Z,35.17
2017-07-14T23:03:20.406Z,35.97
2017-07-14T23:05:48.833Z,36.67
2017-07-14T23:08:16.486Z,37.35
2017-07-14T23:10:44.217Z,36.13
2017-07-14T23:13:11.878Z,38.70
2017-07-14T23:15:39.530Z,32.28
2017-07-14T23:18:07.322Z,34.97
2017-07-14T23:20:35.003Z,36.03
2017-07-14T23:23:02.691Z,40.85
2017-07-14T23:25:30.379Z,35.90
2017-07-14T23:27:58.207Z,37.95
2017-07-14T23:30:25.878Z,34.13
2017-07-14T23:32:53.569Z,36.20
2017-07-14T23:35:21.209Z,36.42
2017-07-14T23:37:48.874Z,34.30
2017-07-14T23:40:16.585Z,36.05
2017-07-14T23:42:44.229Z,35.72
2017-07-14T23:45:12.658Z,36.67
2017-07-14T23:47:40.384Z,36.10
2017-07-14T23:50:08.029Z,36.35
2017-07-14T23:52:36.439Z,39.53
2017-07-14T23:55:04.130Z,37.80
2017-07-14T23:57:31.771Z,37.15
2017-07-14T23:59:59.428Z,39.17
